createdAt,value
2023-03-30T00:01:15.387Z,73.83
2023-03-30T00:03:44.902Z,73.86
2023-03-30T00:06:14.801Z,73.75
2023-03-30T00:08:42.666Z,73.13
2023-03-30T00:11:13.776Z,72.96
2023-03-30T00:13:41.580Z,72.74
2023-03-30T00:16:12.698Z,72.67
2023-03-30T00:18:40.534Z,73.21
2023-03-30T00:21:11.277Z,72.81
2023-03-30T00:23:39.622Z,73.35
2023-03-30T00:26:08.305Z,72.90
2023-03-30T00:28:35.848Z,73.24
2023-03-30T00:31:03.403Z,73.40
2023-03-30T00:33:44.786Z,73.36
2023-03-30T00:36:14.028Z,74.06
2023-03-30T00:38:41.530Z,74.50
2023-03-30T00:41:09.473Z,74.97
2023-03-30T00:43:59.471Z,75.22
2023-03-30T00:46:27.202Z,75.30
2023-03-30T00:49:00.029Z,75.52
2023-03-30T00:51:28.878Z,75.04
2023-03-30T00:54:12.958Z,74.65
2023-03-30T00:56:40.812Z,74.14
2023-03-30T00:59:09.252Z,73.41
2023-03-30T01:01:39.628Z,73.41
2023-03-30T01:04:08.730Z,73.56
2023-03-30T01:06:37.010Z,73.42
2023-03-30T01:09:04.405Z,73.11
2023-03-30T01:11:31.796Z,73.26
2023-03-30T01:14:03.499Z,73.66
2023-03-30T01:16:38.480Z,73.98
2023-03-30T01:19:24.358Z,74.09
2023-03-30T01:22:34.705Z,74.76
2023-03-30T01:25:15.285Z,74.38
2023-03-30T01:28:19.794Z,74.38
2023-03-30T01:31:20.472Z,74.07
2023-03-30T01:34:27.951Z,74.20
2023-03-30T01:38:01.664Z,74.31
2023-03-30T01:41:02.059Z,75.12
2023-03-30T01:43:52.682Z,75.28
2023-03-30T01:46:37.546Z,75.53
2023-03-30T01:49:36.725Z,74.92
2023-03-30T01:52:15.564Z,74.74
2023-03-30T01:55:01.552Z,74.83
2023-03-30T01:57:50.182Z,75.12
2023-03-30T02:00:22.572Z,75.00
2023-03-30T02:02:56.370Z,74.44
2023-03-30T02:05:24.727Z,75.39
2023-03-30T02:08:03.595Z,77.26
2023-03-30T02:10:33.977Z,78.07
2023-03-30T02:13:01.456Z,79.80
2023-03-30T02:15:46.436Z,81.39
2023-03-30T02:18:13.735Z,82.11
2023-03-30T02:20:42.650Z,82.42
2023-03-30T02:23:10.053Z,81.92
2023-03-30T02:25:38.649Z,80.52
2023-03-30T02:28:08.259Z,79.99
2023-03-30T02:30:40.504Z,79.95
2023-03-30T02:33:12.967Z,79.95
2023-03-30T02:36:07.138Z,79.94
2023-03-30T02:39:18.542Z,80.54
2023-03-30T02:42:20.510Z,81.13
2023-03-30T02:45:00.117Z,81.25
2023-03-30T02:48:06.120Z,81.38
2023-03-30T02:50:34.721Z,81.04
2023-03-30T02:53:23.443Z,81.10
2023-03-30T02:55:54.755Z,81.07
2023-03-30T02:58:30.942Z,81.79
2023-03-30T03:01:13.512Z,82.54
2023-03-30T03:03:45.772Z,83.56
2023-03-30T03:06:14.901Z,84.05
2023-03-30T03:08:45.092Z,84.23
2023-03-30T03:11:12.759Z,84.00
2023-03-30T03:13:40.684Z,85.04
2023-03-30T03:16:13.737Z,84.98
2023-03-30T03:18:41.893Z,84.90
2023-03-30T03:21:10.104Z,82.74
2023-03-30T03:23:37.599Z,83.00
2023-03-30T03:26:06.723Z,83.97
2023-03-30T03:28:34.809Z,83.82
2023-03-30T03:31:02.985Z,83.95
2023-03-30T03:33:32.048Z,83.78
2023-03-30T03:36:00.551Z,84.26
2023-03-30T03:38:28.395Z,84.80
2023-03-30T03:40:58.319Z,84.84
2023-03-30T03:43:26.160Z,84.11
2023-03-30T03:45:53.939Z,84.51
2023-03-30T03:48:24.084Z,84.64
2023-03-30T03:50:57.247Z,84.89
2023-03-30T03:53:27.682Z,85.24
2023-03-30T03:55:55.292Z,85.93
2023-03-30T03:58:22.954Z,86.85
2023-03-30T04:00:50.540Z,88.00
2023-03-30T04:03:18.178Z,88.73
2023-03-30T04:05:45.638Z,89.33
2023-03-30T04:08:13.010Z,89.71
2023-03-30T04:10:42.178Z,90.10
2023-03-30T04:13:09.937Z,90.79
2023-03-30T04:15:37.450Z,90.89
2023-03-30T04:18:05.430Z,91.16
2023-03-30T04:20:32.927Z,92.06
2023-03-30T04:23:01.872Z,92.81
2023-03-30T04:25:29.421Z,93.88
2023-03-30T04:27:57.406Z,95.28
2023-03-30T04:30:24.903Z,96.40
2023-03-30T04:33:02.683Z,97.06
2023-03-30T04:35:32.558Z,97.95
2023-03-30T04:38:02.197Z,98.34
2023-03-30T04:40:30.178Z,98.69
2023-03-30T04:43:02.787Z,98.98
2023-03-30T04:45:31.333Z,99.60
2023-03-30T04:47:59.126Z,99.84
2023-03-30T04:50:26.693Z,100.00
2023-03-30T04:52:54.015Z,99.89
2023-03-30T04:55:21.435Z,99.95
2023-03-30T04:57:48.891Z,99.89
2023-03-30T05:00:17.528Z,99.59
2023-03-30T05:02:45.022Z,99.97
2023-03-30T05:05:12.108Z,100.00
2023-03-30T05:07:39.481Z,100.00
2023-03-30T05:10:08.011Z,100.00
2023-03-30T05:12:35.530Z,100.00
2023-03-30T05:15:03.201Z,100.00
2023-03-30T05:17:34.115Z,100.00
2023-03-30T05:20:02.449Z,100.00
2023-03-30T05:22:29.802Z,100.00
2023-03-30T05:24:57.344Z,100.00
2023-03-30T05:27:24.742Z,100.00
2023-03-30T05:29:52.106Z,100.00
2023-03-30T05:32:19.508Z,100.00
2023-03-30T05:34:47.110Z,99.75
2023-03-30T05:37:14.822Z,100.00
2023-03-30T05:39:42.581Z,100.00
2023-03-30T05:42:11.703Z,100.00
2023-03-30T05:44:39.085Z,100.00
2023-03-30T05:47:06.568Z,100.00
2023-03-30T05:49:33.933Z,100.00
2023-03-30T05:52:01.299Z,100.00
2023-03-30T05:54:28.817Z,100.00
2023-03-30T05:56:56.253Z,100.00
2023-03-30T05:59:23.967Z,100.00
2023-03-30T06:01:51.457Z,100.00
2023-03-30T06:04:18.902Z,100.00
2023-03-30T06:06:46.566Z,100.00
2023-03-30T06:09:13.858Z,100.00
2023-03-30T06:11:41.493Z,100.00
2023-03-30T06:14:09.987Z,100.00
2023-03-30T06:16:37.210Z,100.00
2023-03-30T06:19:04.598Z,100.00
2023-03-30T06:21:32.067Z,100.00
2023-03-30T06:23:59.184Z,100.00
2023-03-30T06:26:26.564Z,100.00
2023-03-30T06:28:53.928Z,100.00
2023-03-30T06:31:21.341Z,100.00
2023-03-30T06:33:50.223Z,100.00
2023-03-30T06:36:17.774Z,100.00
2023-03-30T06:38:45.176Z,100.00
2023-03-30T06:41:12.961Z,100.00
2023-03-30T06:43:40.678Z,100.00
2023-03-30T06:46:08.667Z,100.00
2023-03-30T06:48:36.829Z,100.00
2023-03-30T06:51:05.596Z,100.00
2023-03-30T06:53:33.408Z,100.00
2023-03-30T06:56:00.964Z,100.00
2023-03-30T06:58:28.524Z,100.00
2023-03-30T07:00:56.845Z,100.00
2023-03-30T07:03:24.529Z,100.00
2023-03-30T07:05:52.468Z,100.00
2023-03-30T07:08:20.252Z,100.00
2023-03-30T07:10:48.266Z,100.00
2023-03-30T07:13:16.953Z,100.00
2023-03-30T07:15:46.096Z,100.00
2023-03-30T07:18:14.105Z,100.00
2023-03-30T07:20:41.184Z,100.00
2023-03-30T07:23:09.045Z,100.00
2023-03-30T07:25:36.390Z,100.00
2023-03-30T07:28:06.315Z,100.00
2023-03-30T07:30:34.809Z,100.00
2023-03-30T07:33:03.178Z,100.00
2023-03-30T07:35:30.917Z,100.00
2023-03-30T07:38:03.413Z,100.00
2023-03-30T07:40:31.702Z,100.00
2023-03-30T07:42:59.315Z,100.00
2023-03-30T07:45:27.142Z,100.00
2023-03-30T07:47:54.604Z,100.00
2023-03-30T07:50:22.842Z,100.00
2023-03-30T07:52:52.350Z,100.00
2023-03-30T07:55:20.111Z,100.00
2023-03-30T07:57:47.435Z,100.00
2023-03-30T08:00:14.930Z,100.00
2023-03-30T08:02:42.756Z,100.00
2023-03-30T08:05:11.374Z,100.00
2023-03-30T08:07:38.954Z,100.00
2023-03-30T08:10:08.150Z,100.00
2023-03-30T08:12:35.629Z,100.00
2023-03-30T08:15:03.871Z,100.00
2023-03-30T08:17:31.105Z,100.00
2023-03-30T08:19:58.483Z,100.00
2023-03-30T08:22:25.998Z,100.00
2023-03-30T08:24:53.388Z,100.00
2023-03-30T08:27:20.837Z,100.00
2023-03-30T08:29:48.889Z,100.00
2023-03-30T08:32:16.498Z,100.00
2023-03-30T08:34:44.786Z,100.00
2023-03-30T08:37:12.547Z,100.00
2023-03-30T08:39:39.980Z,100.00
2023-03-30T08:42:50.595Z,100.00
2023-03-30T08:45:18.771Z,100.00
2023-03-30T08:47:50.197Z,100.00
2023-03-30T08:50:31.120Z,100.00
2023-03-30T08:52:58.563Z,100.00
2023-03-30T08:55:28.597Z,100.00
2023-03-30T08:58:27.302Z,100.00
2023-03-30T09:00:54.616Z,100.00
2023-03-30T09:03:45.605Z,100.00
2023-03-30T09:06:18.082Z,100.00
2023-03-30T09:08:46.119Z,100.00
2023-03-30T09:11:19.605Z,100.00
2023-03-30T09:13:47.385Z,100.00
2023-03-30T09:16:48.743Z,95.86
2023-03-30T09:19:27.950Z,93.42
2023-03-30T09:21:57.708Z,89.51
2023-03-30T09:24:29.583Z,87.30
2023-03-30T09:27:48.070Z,87.04
2023-03-30T09:30:53.713Z,86.38
2023-03-30T09:33:52.202Z,84.99
2023-03-30T09:36:29.732Z,82.59
2023-03-30T09:38:57.242Z,81.81
2023-03-30T09:41:41.948Z,81.05
2023-03-30T09:44:23.336Z,81.03
2023-03-30T09:46:53.985Z,80.40
2023-03-30T09:49:21.380Z,81.47
2023-03-30T09:52:22.881Z,80.86
2023-03-30T09:54:50.471Z,81.21
2023-03-30T09:57:34.495Z,81.63
2023-03-30T10:00:02.298Z,81.23
2023-03-30T10:02:31.592Z,80.46
2023-03-30T10:05:02.478Z,80.63
2023-03-30T10:07:37.958Z,81.04
2023-03-30T10:10:38.627Z,79.46
2023-03-30T10:13:17.077Z,80.80
2023-03-30T10:15:49.905Z,80.78
2023-03-30T10:18:37.763Z,81.43
2023-03-30T10:21:27.890Z,81.10
2023-03-30T10:24:19.193Z,81.18
2023-03-30T10:26:47.180Z,80.59
2023-03-30T10:29:18.497Z,81.73
2023-03-30T10:31:48.686Z,81.95
2023-03-30T10:34:28.590Z,81.60
2023-03-30T10:36:56.189Z,82.23
2023-03-30T10:39:29.866Z,82.81
2023-03-30T10:41:59.969Z,82.43
2023-03-30T10:44:47.954Z,82.85
2023-03-30T10:47:39.174Z,83.51
2023-03-30T10:50:40.596Z,82.12
2023-03-30T10:53:31.562Z,81.58
2023-03-30T10:56:20.274Z,81.21
2023-03-30T10:58:53.559Z,80.75
2023-03-30T11:01:36.794Z,79.70
2023-03-30T11:04:22.659Z,79.66
2023-03-30T11:06:53.556Z,79.22
2023-03-30T11:09:28.222Z,78.17
2023-03-30T11:12:02.158Z,78.48
2023-03-30T11:14:51.925Z,78.00
2023-03-30T11:17:55.601Z,77.82
2023-03-30T11:20:27.517Z,77.30
2023-03-30T11:23:22.009Z,76.74
2023-03-30T11:26:00.458Z,75.36
2023-03-30T11:28:42.879Z,74.95
2023-03-30T11:31:42.405Z,72.94
2023-03-30T11:34:53.773Z,72.06
2023-03-30T11:37:34.066Z,69.93
2023-03-30T11:40:30.203Z,70.22
2023-03-30T11:42:57.606Z,68.69
2023-03-30T11:46:21.800Z,69.61
2023-03-30T11:49:13.471Z,69.47
2023-03-30T11:52:22.405Z,68.21
2023-03-30T11:55:08.851Z,67.11
2023-03-30T11:57:36.196Z,67.35
2023-03-30T12:00:28.272Z,67.00
2023-03-30T12:03:35.205Z,65.98
2023-03-30T12:06:16.930Z,65.15
2023-03-30T12:09:05.907Z,64.73
2023-03-30T12:11:36.107Z,63.76
2023-03-30T12:14:03.508Z,63.17
2023-03-30T12:16:40.787Z,63.12
2023-03-30T12:19:11.198Z,61.53
2023-03-30T12:22:03.017Z,62.45
2023-03-30T12:24:49.149Z,62.63
2023-03-30T12:27:16.575Z,62.91
2023-03-30T12:32:29.349Z,61.95
2023-03-30T12:34:58.605Z,61.18
2023-03-30T12:37:38.152Z,61.98
2023-03-30T12:40:22.412Z,61.46
2023-03-30T12:43:15.121Z,62.20
2023-03-30T12:46:14.124Z,62.63
2023-03-30T12:48:54.724Z,63.92
2023-03-30T12:51:47.779Z,64.45
2023-03-30T12:54:54.482Z,61.76
2023-03-30T12:57:33.203Z,60.40
2023-03-30T13:00:48.057Z,60.17
2023-03-30T13:03:36.824Z,59.14
2023-03-30T13:08:41.906Z,58.69
2023-03-30T13:11:22.507Z,58.73
2023-03-30T13:13:57.508Z,58.36
2023-03-30T13:16:55.520Z,58.16
2023-03-30T13:19:34.276Z,57.50
2023-03-30T13:22:13.671Z,55.73
2023-03-30T13:25:12.497Z,57.37
2023-03-30T13:27:42.151Z,55.69
2023-03-30T13:30:09.620Z,55.86
2023-03-30T13:33:04.904Z,56.13
2023-03-30T13:35:57.382Z,53.93
2023-03-30T13:38:50.399Z,54.83
2023-03-30T13:41:34.797Z,55.71
2023-03-30T13:44:37.651Z,54.78
2023-03-30T13:47:05.064Z,55.00
2023-03-30T13:49:54.355Z,55.05
2023-03-30T13:52:33.579Z,55.33
2023-03-30T13:55:03.380Z,54.88
2023-03-30T13:57:38.325Z,54.08
2023-03-30T14:00:48.904Z,52.65
2023-03-30T14:03:46.632Z,52.94
2023-03-30T14:06:17.666Z,54.15
2023-03-30T14:08:48.419Z,54.28
2023-03-30T14:11:19.667Z,57.54
2023-03-30T14:13:52.503Z,61.50
2023-03-30T14:16:35.305Z,59.58
2023-03-30T14:19:25.494Z,59.33
2023-03-30T14:22:14.201Z,54.38
2023-03-30T14:25:01.230Z,53.03
2023-03-30T14:27:38.989Z,52.27
2023-03-30T14:30:24.826Z,52.25
2023-03-30T14:33:08.230Z,52.35
2023-03-30T14:35:42.392Z,52.78
2023-03-30T14:38:40.118Z,52.25
2023-03-30T14:41:27.463Z,52.62
2023-03-30T14:43:57.608Z,52.41
2023-03-30T14:46:38.360Z,52.54
2023-03-30T14:49:08.598Z,52.22
2023-03-30T14:51:43.184Z,52.83
2023-03-30T14:54:18.708Z,52.73
2023-03-30T14:57:03.911Z,52.93
2023-03-30T14:59:34.626Z,52.94
2023-03-30T15:02:02.466Z,53.82
2023-03-30T15:04:34.750Z,54.41
2023-03-30T15:07:02.190Z,53.97
2023-03-30T15:09:39.210Z,53.36
2023-03-30T15:12:07.130Z,52.79
2023-03-30T15:14:41.978Z,52.19
2023-03-30T15:17:16.632Z,52.76
2023-03-30T15:19:54.318Z,52.18
2023-03-30T15:22:46.686Z,52.68
2023-03-30T15:25:31.494Z,52.68
2023-03-30T15:28:07.773Z,51.80
2023-03-30T15:30:44.361Z,51.95
2023-03-30T15:33:38.695Z,52.83
2023-03-30T15:36:12.853Z,52.92
2023-03-30T15:38:56.723Z,53.94
2023-03-30T15:41:44.860Z,54.00
2023-03-30T15:44:22.881Z,52.96
2023-03-30T15:46:52.887Z,52.98
2023-03-30T15:49:24.831Z,54.07
2023-03-30T15:51:58.670Z,55.66
2023-03-30T15:54:27.355Z,55.67
2023-03-30T15:57:13.229Z,55.47
2023-03-30T15:59:52.507Z,55.61
2023-03-30T16:02:25.386Z,55.31
2023-03-30T16:04:54.468Z,56.30
2023-03-30T16:07:24.920Z,56.69
2023-03-30T16:09:53.075Z,58.10
2023-03-30T16:12:25.758Z,58.63
2023-03-30T16:14:53.674Z,59.24
2023-03-30T16:17:21.270Z,59.57
2023-03-30T16:19:48.675Z,60.02
2023-03-30T16:22:16.439Z,59.76
2023-03-30T16:24:43.870Z,59.83
2023-03-30T16:27:12.285Z,59.88
2023-03-30T16:29:40.070Z,60.51
2023-03-30T16:32:07.904Z,61.04
2023-03-30T16:34:35.352Z,61.46
2023-03-30T16:37:03.737Z,61.72
2023-03-30T16:39:31.355Z,61.76
2023-03-30T16:41:58.737Z,61.09
2023-03-30T16:44:26.333Z,61.51
2023-03-30T16:46:53.884Z,60.75
2023-03-30T16:49:24.732Z,61.08
2023-03-30T16:51:55.250Z,62.00
2023-03-30T16:54:32.179Z,62.35
2023-03-30T16:57:01.561Z,62.11
2023-03-30T16:59:32.761Z,63.15
2023-03-30T17:02:00.724Z,64.17
2023-03-30T17:04:28.411Z,65.31
2023-03-30T17:06:55.804Z,66.88
2023-03-30T17:09:23.456Z,69.08
2023-03-30T17:11:50.857Z,71.86
2023-03-30T17:14:20.420Z,72.50
2023-03-30T17:16:47.838Z,73.47
2023-03-30T17:19:17.813Z,74.17
2023-03-30T17:21:46.103Z,74.10
2023-03-30T17:24:15.316Z,74.03
2023-03-30T17:26:42.940Z,74.16
2023-03-30T17:29:10.884Z,74.10
2023-03-30T17:31:38.796Z,73.74
2023-03-30T17:34:07.574Z,73.39
2023-03-30T17:36:35.061Z,74.40
2023-03-30T17:39:05.693Z,74.87
2023-03-30T17:41:36.239Z,75.04
2023-03-30T17:44:03.564Z,75.33
2023-03-30T17:46:31.183Z,75.84
2023-03-30T17:48:59.952Z,75.94
2023-03-30T17:51:27.460Z,76.18
2023-03-30T17:53:54.859Z,78.27
2023-03-30T17:56:22.410Z,78.82
2023-03-30T17:58:49.856Z,79.79
2023-03-30T18:01:17.256Z,80.14
2023-03-30T18:03:45.198Z,79.28
2023-03-30T18:06:13.372Z,79.81
2023-03-30T18:08:43.027Z,79.00
2023-03-30T18:11:10.518Z,79.11
2023-03-30T18:13:38.112Z,78.05
2023-03-30T18:16:06.128Z,77.61
2023-03-30T18:18:33.571Z,77.41
2023-03-30T18:21:03.451Z,77.67
2023-03-30T18:23:34.127Z,76.37
2023-03-30T18:26:03.807Z,77.71
2023-03-30T18:28:31.773Z,78.94
2023-03-30T18:31:00.878Z,80.11
2023-03-30T18:33:28.799Z,80.80
2023-03-30T18:36:04.984Z,81.53
2023-03-30T18:38:33.630Z,81.44
2023-03-30T18:41:01.588Z,82.32
2023-03-30T18:43:29.254Z,83.55
2023-03-30T18:46:02.846Z,84.10
2023-03-30T18:48:30.686Z,83.64
2023-03-30T18:50:58.266Z,82.87
2023-03-30T18:53:28.998Z,85.34
2023-03-30T18:56:00.516Z,88.65
2023-03-30T18:58:33.428Z,89.39
2023-03-30T19:01:01.498Z,90.08
2023-03-30T19:03:30.101Z,92.77
2023-03-30T19:05:57.751Z,94.35
2023-03-30T19:08:26.793Z,97.85
2023-03-30T19:10:57.109Z,100.00
2023-03-30T19:13:26.793Z,100.00
2023-03-30T19:15:54.821Z,100.00
2023-03-30T19:18:22.800Z,100.00
2023-03-30T19:20:51.346Z,100.00
2023-03-30T19:23:19.627Z,100.00
2023-03-30T19:25:48.781Z,100.00
2023-03-30T19:28:16.360Z,100.00
2023-03-30T19:30:43.834Z,100.00
2023-03-30T19:33:16.516Z,100.00
2023-03-30T19:35:45.382Z,100.00
2023-03-30T19:38:13.256Z,100.00
2023-03-30T19:40:41.349Z,100.00
2023-03-30T19:43:09.836Z,100.00
2023-03-30T19:45:37.321Z,100.00
2023-03-30T19:48:05.043Z,100.00
2023-03-30T19:50:32.518Z,100.00
2023-03-30T19:53:00.197Z,100.00
2023-03-30T19:55:27.688Z,100.00
2023-03-30T19:57:55.276Z,100.00
2023-03-30T20:00:22.802Z,100.00
2023-03-30T20:02:53.002Z,100.00
2023-03-30T20:05:23.167Z,100.00
2023-03-30T20:07:51.252Z,100.00
2023-03-30T20:10:22.301Z,100.00
2023-03-30T20:12:50.027Z,100.00
2023-03-30T20:15:19.467Z,100.00
2023-03-30T20:17:47.007Z,100.00
2023-03-30T20:20:25.061Z,100.00
2023-03-30T20:22:55.761Z,100.00
2023-03-30T20:25:23.292Z,100.00
2023-03-30T20:27:50.634Z,100.00
2023-03-30T20:30:18.883Z,100.00
2023-03-30T20:32:56.007Z,100.00
2023-03-30T20:35:32.118Z,100.00
2023-03-30T20:37:59.605Z,100.00
2023-03-30T20:40:27.299Z,100.00
2023-03-30T20:43:02.018Z,100.00
2023-03-30T20:45:31.951Z,100.00
2023-03-30T20:48:06.146Z,100.00
2023-03-30T20:50:33.958Z,100.00
2023-03-30T20:53:01.588Z,100.00
2023-03-30T20:55:29.072Z,100.00
2023-03-30T20:57:56.442Z,100.00
2023-03-30T21:00:24.235Z,100.00
2023-03-30T21:02:51.583Z,100.00
2023-03-30T21:05:19.003Z,99.42
2023-03-30T21:07:47.085Z,99.01
2023-03-30T21:10:16.340Z,98.51
2023-03-30T21:12:43.725Z,98.11
2023-03-30T21:15:11.540Z,97.46
2023-03-30T21:17:38.895Z,97.16
2023-03-30T21:20:09.324Z,97.14
2023-03-30T21:22:36.796Z,96.50
2023-03-30T21:25:03.974Z,98.99
2023-03-30T21:27:31.561Z,100.00
2023-03-30T21:29:58.938Z,100.00
2023-03-30T21:32:26.344Z,100.00
2023-03-30T21:34:53.777Z,100.00
2023-03-30T21:37:21.101Z,100.00
2023-03-30T21:39:49.330Z,100.00
2023-03-30T21:42:18.067Z,100.00
2023-03-30T21:44:45.440Z,100.00
2023-03-30T21:47:16.451Z,100.00
2023-03-30T21:49:44.043Z,100.00
2023-03-30T21:52:11.948Z,100.00
2023-03-30T21:54:39.513Z,100.00
2023-03-30T21:57:06.906Z,100.00
2023-03-30T21:59:34.298Z,100.00
2023-03-30T22:02:01.689Z,100.00
2023-03-30T22:04:29.119Z,100.00
2023-03-30T22:06:56.467Z,100.00
2023-03-30T22:09:23.776Z,100.00
2023-03-30T22:11:53.101Z,100.00
2023-03-30T22:14:20.609Z,100.00
2023-03-30T22:16:47.760Z,100.00
2023-03-30T22:19:15.147Z,100.00
2023-03-30T22:21:42.503Z,100.00
2023-03-30T22:24:11.982Z,100.00
2023-03-30T22:26:39.427Z,100.00
2023-03-30T22:29:07.050Z,100.00
2023-03-30T22:31:34.750Z,100.00
2023-03-30T22:34:02.091Z,100.00
2023-03-30T22:36:31.043Z,100.00
2023-03-30T22:39:00.673Z,100.00
2023-03-30T22:41:28.646Z,100.00
2023-03-30T22:43:59.246Z,100.00
2023-03-30T22:46:27.735Z,100.00
2023-03-30T22:48:58.352Z,100.00
2023-03-30T22:51:26.696Z,100.00
2023-03-30T22:53:58.247Z,100.00
2023-03-30T22:56:27.409Z,100.00
2023-03-30T22:58:54.871Z,100.00
2023-03-30T23:01:22.468Z,100.00
2023-03-30T23:03:50.592Z,100.00
2023-03-30T23:06:19.244Z,100.00
2023-03-30T23:08:48.624Z,100.00
2023-03-30T23:11:16.617Z,100.00
2023-03-30T23:13:44.138Z,100.00
2023-03-30T23:16:11.542Z,100.00
2023-03-30T23:18:39.581Z,100.00
2023-03-30T23:21:08.346Z,100.00
2023-03-30T23:23:36.735Z,100.00
2023-03-30T23:26:09.023Z,100.00
2023-03-30T23:28:42.136Z,100.00
2023-03-30T23:31:15.824Z,100.00
2023-03-30T23:33:44.326Z,100.00
2023-03-30T23:36:13.790Z,100.00
2023-03-30T23:38:41.740Z,100.00
2023-03-30T23:41:09.437Z,100.00
2023-03-30T23:43:36.947Z,100.00
2023-03-30T23:46:04.874Z,100.00
2023-03-30T23:48:32.821Z,100.00
2023-03-30T23:51:00.520Z,100.00
2023-03-30T23:53:27.935Z,100.00
2023-03-30T23:55:55.497Z,100.00
2023-03-30T23:58:23.024Z,100.00
